Larkfield, California
Current Conditions -  °F | °C
As of 11:53 AM on Wednesday 17 Dec 2014 (Local Time) from KSTS Reporting Station
Scattered Clouds Scattered Clouds  
Wind Chill: 55°   Ceiling: Unl
Heat Index: 55°   Visibility: 10mi
Dew Point: 50°   Wind: 6mph
Humidity: 83%   Direction: 190°S
Pressure: 30.03"   Gusts: NA
Location:  38.4891°N, 122.745°W
Report Text: KSTS 171953Z 19005KT 10SM FEW011 SCT021 SCT100 13/10 A3003 RMK AO2 SLP162 T01280100
Loading
Personal Weather Stations






























Interactive Weather Map New forecast layout! Learn more

10-Day Weather Forecast

Advertisements
Track Severe Weather on mobile